sensor_id;sensor_type;location;lat;lon;timestamp;P1;durP1;ratioP1;P2;durP2;ratioP2
46282;SDS011;32017;43.700;11.820;2023-02-11T00:01:08;55.58;;;52.35;;
46282;SDS011;32017;43.700;11.820;2023-02-11T00:03:29;55.65;;;52.63;;
46282;SDS011;32017;43.700;11.820;2023-02-11T00:05:59;52.60;;;49.58;;
46282;SDS011;32017;43.700;11.820;2023-02-11T00:08:20;56.72;;;53.78;;
46282;SDS011;32017;43.700;11.820;2023-02-11T00:10:40;55.70;;;52.40;;
46282;SDS011;32017;43.700;11.820;2023-02-11T00:13:00;52.20;;;49.15;;
46282;SDS011;32017;43.700;11.820;2023-02-11T00:15:20;54.97;;;51.20;;
46282;SDS011;32017;43.700;11.820;2023-02-11T00:17:40;56.78;;;53.45;;
46282;SDS011;32017;43.700;11.820;2023-02-11T00:19:59;56.70;;;52.95;;
46282;SDS011;32017;43.700;11.820;2023-02-11T00:22:19;49.17;;;46.88;;
46282;SDS011;32017;43.700;11.820;2023-02-11T00:24:39;47.40;;;45.15;;
46282;SDS011;32017;43.700;11.820;2023-02-11T00:26:59;49.42;;;46.72;;
46282;SDS011;32017;43.700;11.820;2023-02-11T00:29:19;45.15;;;42.92;;
46282;SDS011;32017;43.700;11.820;2023-02-11T00:31:39;48.35;;;45.65;;
46282;SDS011;32017;43.700;11.820;2023-02-11T00:33:59;56.95;;;52.97;;
46282;SDS011;32017;43.700;11.820;2023-02-11T00:36:23;50.78;;;47.80;;
46282;SDS011;32017;43.700;11.820;2023-02-11T00:38:45;48.85;;;46.20;;
46282;SDS011;32017;43.700;11.820;2023-02-11T00:41:06;58.10;;;52.78;;
46282;SDS011;32017;43.700;11.820;2023-02-11T00:43:26;65.07;;;59.47;;
46282;SDS011;32017;43.700;11.820;2023-02-11T00:45:46;73.07;;;65.88;;
46282;SDS011;32017;43.700;11.820;2023-02-11T00:48:06;60.58;;;55.67;;
46282;SDS011;32017;43.700;11.820;2023-02-11T00:50:25;82.97;;;72.20;;
46282;SDS011;32017;43.700;11.820;2023-02-11T00:52:46;67.82;;;62.05;;
46282;SDS011;32017;43.700;11.820;2023-02-11T00:55:06;67.07;;;60.70;;
46282;SDS011;32017;43.700;11.820;2023-02-11T00:57:26;61.17;;;56.47;;
46282;SDS011;32017;43.700;11.820;2023-02-11T00:59:47;57.40;;;53.00;;
46282;SDS011;32017;43.700;11.820;2023-02-11T01:02:07;65.15;;;60.28;;
46282;SDS011;32017;43.700;11.820;2023-02-11T01:04:26;59.60;;;55.10;;
46282;SDS011;32017;43.700;11.820;2023-02-11T01:06:46;61.47;;;57.10;;
46282;SDS011;32017;43.700;11.820;2023-02-11T01:09:06;63.10;;;58.20;;
46282;SDS011;32017;43.700;11.820;2023-02-11T01:11:26;62.33;;;57.40;;
46282;SDS011;32017;43.700;11.820;2023-02-11T01:13:46;56.63;;;52.88;;
46282;SDS011;32017;43.700;11.820;2023-02-11T01:16:07;63.50;;;57.78;;
46282;SDS011;32017;43.700;11.820;2023-02-11T01:18:28;56.20;;;52.65;;
46282;SDS011;32017;43.700;11.820;2023-02-11T01:21:07;55.88;;;52.17;;
46282;SDS011;32017;43.700;11.820;2023-02-11T01:23:26;54.55;;;50.83;;
46282;SDS011;32017;43.700;11.820;2023-02-11T01:25:47;60.35;;;56.00;;
46282;SDS011;32017;43.700;11.820;2023-02-11T01:28:12;54.05;;;50.85;;
46282;SDS011;32017;43.700;11.820;2023-02-11T01:30:38;57.45;;;54.13;;
46282;SDS011;32017;43.700;11.820;2023-02-11T01:32:58;50.97;;;48.13;;
46282;SDS011;32017;43.700;11.820;2023-02-11T01:35:19;56.55;;;53.30;;
46282;SDS011;32017;43.700;11.820;2023-02-11T01:37:39;59.78;;;55.97;;
46282;SDS011;32017;43.700;11.820;2023-02-11T01:40:03;58.63;;;55.25;;
46282;SDS011;32017;43.700;11.820;2023-02-11T01:42:25;56.63;;;53.22;;
46282;SDS011;32017;43.700;11.820;2023-02-11T01:44:47;58.30;;;53.97;;
46282;SDS011;32017;43.700;11.820;2023-02-11T01:47:09;63.97;;;59.28;;
46282;SDS011;32017;43.700;11.820;2023-02-11T01:49:30;58.35;;;54.40;;
46282;SDS011;32017;43.700;11.820;2023-02-11T01:51:59;57.67;;;53.58;;
46282;SDS011;32017;43.700;11.820;2023-02-11T01:54:25;61.75;;;57.42;;
46282;SDS011;32017;43.700;11.820;2023-02-11T01:57:09;59.53;;;55.08;;
46282;SDS011;32017;43.700;11.820;2023-02-11T02:02:20;56.50;;;52.88;;
46282;SDS011;32017;43.700;11.820;2023-02-11T02:05:28;51.10;;;48.53;;
46282;SDS011;32017;43.700;11.820;2023-02-11T02:07:40;52.53;;;49.60;;
46282;SDS011;32017;43.700;11.820;2023-02-11T02:10:13;51.88;;;49.28;;
46282;SDS011;32017;43.700;11.820;2023-02-11T02:12:37;52.20;;;49.38;;
46282;SDS011;32017;43.700;11.820;2023-02-11T02:17:57;48.53;;;45.53;;
46282;SDS011;32017;43.700;11.820;2023-02-11T02:25:43;55.13;;;51.65;;
46282;SDS011;32017;43.700;11.820;2023-02-11T02:28:11;50.22;;;47.00;;
46282;SDS011;32017;43.700;11.820;2023-02-11T02:31:22;49.53;;;46.60;;
46282;SDS011;32017;43.700;11.820;2023-02-11T02:34:12;50.05;;;47.13;;
46282;SDS011;32017;43.700;11.820;2023-02-11T02:36:42;49.92;;;46.88;;
46282;SDS011;32017;43.700;11.820;2023-02-11T02:39:11;50.30;;;47.53;;
46282;SDS011;32017;43.700;11.820;2023-02-11T02:41:38;54.75;;;51.45;;
46282;SDS011;32017;43.700;11.820;2023-02-11T02:44:00;57.45;;;53.50;;
46282;SDS011;32017;43.700;11.820;2023-02-11T02:46:31;60.90;;;56.55;;
46282;SDS011;32017;43.700;11.820;2023-02-11T02:48:52;62.95;;;58.40;;
46282;SDS011;32017;43.700;11.820;2023-02-11T02:51:46;62.00;;;57.13;;
46282;SDS011;32017;43.700;11.820;2023-02-11T02:56:45;61.25;;;57.40;;
46282;SDS011;32017;43.700;11.820;2023-02-11T03:04:25;64.30;;;60.17;;
46282;SDS011;32017;43.700;11.820;2023-02-11T03:06:59;63.13;;;58.92;;
46282;SDS011;32017;43.700;11.820;2023-02-11T03:09:32;62.67;;;57.97;;
46282;SDS011;32017;43.700;11.820;2023-02-11T03:12:03;64.80;;;60.35;;
46282;SDS011;32017;43.700;11.820;2023-02-11T03:14:25;61.47;;;57.40;;
46282;SDS011;32017;43.700;11.820;2023-02-11T03:16:46;58.00;;;54.50;;
46282;SDS011;32017;43.700;11.820;2023-02-11T03:19:10;60.53;;;56.67;;
46282;SDS011;32017;43.700;11.820;2023-02-11T03:21:34;56.63;;;53.03;;
46282;SDS011;32017;43.700;11.820;2023-02-11T03:23:56;55.63;;;52.35;;
46282;SDS011;32017;43.700;11.820;2023-02-11T03:26:24;54.83;;;51.47;;
46282;SDS011;32017;43.700;11.820;2023-02-11T03:31:27;62.17;;;58.15;;
46282;SDS011;32017;43.700;11.820;2023-02-11T03:36:20;49.95;;;47.65;;
46282;SDS011;32017;43.700;11.820;2023-02-11T03:39:06;46.78;;;44.53;;
46282;SDS011;32017;43.700;11.820;2023-02-11T03:41:28;47.85;;;45.50;;
46282;SDS011;32017;43.700;11.820;2023-02-11T03:43:50;52.22;;;49.83;;
46282;SDS011;32017;43.700;11.820;2023-02-11T03:46:15;52.65;;;50.00;;
46282;SDS011;32017;43.700;11.820;2023-02-11T03:48:39;53.33;;;51.05;;
46282;SDS011;32017;43.700;11.820;2023-02-11T03:51:04;47.75;;;45.63;;
46282;SDS011;32017;43.700;11.820;2023-02-11T03:53:26;49.10;;;46.70;;
46282;SDS011;32017;43.700;11.820;2023-02-11T03:55:46;54.55;;;51.88;;
46282;SDS011;32017;43.700;11.820;2023-02-11T03:58:09;51.30;;;48.90;;
46282;SDS011;32017;43.700;11.820;2023-02-11T04:00:30;50.47;;;47.95;;
46282;SDS011;32017;43.700;11.820;2023-02-11T04:02:55;53.03;;;50.47;;
46282;SDS011;32017;43.700;11.820;2023-02-11T04:05:15;53.40;;;50.88;;
46282;SDS011;32017;43.700;11.820;2023-02-11T04:07:35;47.55;;;45.55;;
46282;SDS011;32017;43.700;11.820;2023-02-11T04:09:55;48.50;;;46.40;;
46282;SDS011;32017;43.700;11.820;2023-02-11T04:12:15;50.40;;;48.22;;
46282;SDS011;32017;43.700;11.820;2023-02-11T04:14:35;51.63;;;49.22;;
46282;SDS011;32017;43.700;11.820;2023-02-11T04:16:55;51.30;;;49.15;;
46282;SDS011;32017;43.700;11.820;2023-02-11T04:19:14;46.30;;;44.42;;
46282;SDS011;32017;43.700;11.820;2023-02-11T04:21:34;49.30;;;47.00;;
46282;SDS011;32017;43.700;11.820;2023-02-11T04:23:53;50.45;;;47.97;;
46282;SDS011;32017;43.700;11.820;2023-02-11T04:26:13;46.47;;;44.47;;
46282;SDS011;32017;43.700;11.820;2023-02-11T04:28:33;52.35;;;50.13;;
46282;SDS011;32017;43.700;11.820;2023-02-11T04:30:54;50.33;;;47.80;;
46282;SDS011;32017;43.700;11.820;2023-02-11T04:33:15;51.63;;;48.90;;
46282;SDS011;32017;43.700;11.820;2023-02-11T04:35:35;52.65;;;50.20;;
46282;SDS011;32017;43.700;11.820;2023-02-11T04:37:54;51.95;;;49.25;;
46282;SDS011;32017;43.700;11.820;2023-02-11T04:40:15;50.67;;;48.47;;
46282;SDS011;32017;43.700;11.820;2023-02-11T04:42:35;52.53;;;50.33;;
46282;SDS011;32017;43.700;11.820;2023-02-11T04:44:55;51.47;;;49.15;;
46282;SDS011;32017;43.700;11.820;2023-02-11T04:47:15;49.25;;;47.15;;
46282;SDS011;32017;43.700;11.820;2023-02-11T04:49:35;48.92;;;46.53;;
46282;SDS011;32017;43.700;11.820;2023-02-11T04:51:54;48.13;;;45.90;;
46282;SDS011;32017;43.700;11.820;2023-02-11T04:54:14;49.00;;;46.85;;
46282;SDS011;32017;43.700;11.820;2023-02-11T04:56:35;49.97;;;47.97;;
46282;SDS011;32017;43.700;11.820;2023-02-11T04:58:55;47.35;;;45.15;;
46282;SDS011;32017;43.700;11.820;2023-02-11T05:01:15;49.08;;;46.83;;
46282;SDS011;32017;43.700;11.820;2023-02-11T05:03:36;47.65;;;45.40;;
46282;SDS011;32017;43.700;11.820;2023-02-11T05:05:57;47.97;;;45.95;;
46282;SDS011;32017;43.700;11.820;2023-02-11T05:08:18;47.58;;;45.58;;
46282;SDS011;32017;43.700;11.820;2023-02-11T05:10:37;51.22;;;48.90;;
46282;SDS011;32017;43.700;11.820;2023-02-11T05:12:57;50.70;;;48.35;;
46282;SDS011;32017;43.700;11.820;2023-02-11T05:15:18;47.70;;;45.35;;
46282;SDS011;32017;43.700;11.820;2023-02-11T05:17:38;51.42;;;49.00;;
46282;SDS011;32017;43.700;11.820;2023-02-11T05:19:57;49.85;;;47.60;;
46282;SDS011;32017;43.700;11.820;2023-02-11T05:22:17;49.20;;;46.63;;
46282;SDS011;32017;43.700;11.820;2023-02-11T05:24:37;52.10;;;49.50;;
46282;SDS011;32017;43.700;11.820;2023-02-11T05:26:57;48.83;;;46.47;;
46282;SDS011;32017;43.700;11.820;2023-02-11T05:29:17;48.75;;;46.53;;
46282;SDS011;32017;43.700;11.820;2023-02-11T05:31:38;53.38;;;50.95;;
46282;SDS011;32017;43.700;11.820;2023-02-11T05:33:58;52.35;;;49.85;;
46282;SDS011;32017;43.700;11.820;2023-02-11T05:36:18;51.38;;;49.25;;
46282;SDS011;32017;43.700;11.820;2023-02-11T05:38:39;49.20;;;47.20;;
46282;SDS011;32017;43.700;11.820;2023-02-11T05:41:01;47.17;;;45.47;;
46282;SDS011;32017;43.700;11.820;2023-02-11T05:43:21;51.25;;;49.20;;
46282;SDS011;32017;43.700;11.820;2023-02-11T05:45:41;49.97;;;48.10;;
46282;SDS011;32017;43.700;11.820;2023-02-11T05:48:01;49.15;;;47.25;;
46282;SDS011;32017;43.700;11.820;2023-02-11T05:50:21;47.88;;;46.20;;
46282;SDS011;32017;43.700;11.820;2023-02-11T05:52:41;50.55;;;48.65;;
46282;SDS011;32017;43.700;11.820;2023-02-11T05:55:01;46.53;;;44.60;;
46282;SDS011;32017;43.700;11.820;2023-02-11T05:57:21;53.05;;;50.75;;
46282;SDS011;32017;43.700;11.820;2023-02-11T05:59:41;49.10;;;46.90;;
46282;SDS011;32017;43.700;11.820;2023-02-11T06:02:01;45.10;;;43.50;;
46282;SDS011;32017;43.700;11.820;2023-02-11T06:04:21;50.53;;;48.47;;
46282;SDS011;32017;43.700;11.820;2023-02-11T06:06:41;52.20;;;50.17;;
46282;SDS011;32017;43.700;11.820;2023-02-11T06:09:01;44.80;;;43.08;;
46282;SDS011;32017;43.700;11.820;2023-02-11T06:11:21;46.30;;;44.67;;
46282;SDS011;32017;43.700;11.820;2023-02-11T06:13:41;48.45;;;46.47;;
46282;SDS011;32017;43.700;11.820;2023-02-11T06:16:04;47.30;;;45.70;;
46282;SDS011;32017;43.700;11.820;2023-02-11T06:18:34;50.65;;;48.78;;
46282;SDS011;32017;43.700;11.820;2023-02-11T06:20:54;45.80;;;44.20;;
46282;SDS011;32017;43.700;11.820;2023-02-11T06:23:14;46.47;;;44.60;;
46282;SDS011;32017;43.700;11.820;2023-02-11T06:25:33;47.05;;;45.28;;
46282;SDS011;32017;43.700;11.820;2023-02-11T06:27:53;45.90;;;44.38;;
46282;SDS011;32017;43.700;11.820;2023-02-11T06:30:13;45.97;;;44.40;;
46282;SDS011;32017;43.700;11.820;2023-02-11T06:32:34;49.10;;;47.20;;
46282;SDS011;32017;43.700;11.820;2023-02-11T06:35:04;46.70;;;45.05;;
46282;SDS011;32017;43.700;11.820;2023-02-11T06:37:24;56.17;;;52.67;;
46282;SDS011;32017;43.700;11.820;2023-02-11T06:39:44;53.00;;;50.35;;
46282;SDS011;32017;43.700;11.820;2023-02-11T06:42:04;49.75;;;47.63;;
46282;SDS011;32017;43.700;11.820;2023-02-11T06:44:26;49.97;;;47.88;;
46282;SDS011;32017;43.700;11.820;2023-02-11T06:46:46;51.75;;;49.85;;
46282;SDS011;32017;43.700;11.820;2023-02-11T06:49:06;46.13;;;44.53;;
46282;SDS011;32017;43.700;11.820;2023-02-11T06:51:26;48.17;;;46.42;;
46282;SDS011;32017;43.700;11.820;2023-02-11T06:53:46;49.67;;;47.10;;
46282;SDS011;32017;43.700;11.820;2023-02-11T06:56:09;58.05;;;54.85;;
46282;SDS011;32017;43.700;11.820;2023-02-11T06:58:30;63.20;;;58.25;;
46282;SDS011;32017;43.700;11.820;2023-02-11T07:00:51;56.92;;;53.20;;
46282;SDS011;32017;43.700;11.820;2023-02-11T07:03:11;53.78;;;50.58;;
46282;SDS011;32017;43.700;11.820;2023-02-11T07:05:31;55.67;;;52.58;;
46282;SDS011;32017;43.700;11.820;2023-02-11T07:07:52;63.50;;;58.92;;
46282;SDS011;32017;43.700;11.820;2023-02-11T07:10:12;60.13;;;55.47;;
46282;SDS011;32017;43.700;11.820;2023-02-11T07:12:32;80.57;;;72.53;;
46282;SDS011;32017;43.700;11.820;2023-02-11T07:14:52;72.57;;;66.13;;
46282;SDS011;32017;43.700;11.820;2023-02-11T07:17:12;55.20;;;51.47;;
46282;SDS011;32017;43.700;11.820;2023-02-11T07:19:32;69.97;;;63.35;;
46282;SDS011;32017;43.700;11.820;2023-02-11T07:21:53;56.22;;;52.95;;
46282;SDS011;32017;43.700;11.820;2023-02-11T07:24:13;46.55;;;44.30;;
46282;SDS011;32017;43.700;11.820;2023-02-11T07:26:33;47.60;;;45.83;;
46282;SDS011;32017;43.700;11.820;2023-02-11T07:28:54;44.47;;;42.67;;
46282;SDS011;32017;43.700;11.820;2023-02-11T07:31:18;44.35;;;42.75;;
46282;SDS011;32017;43.700;11.820;2023-02-11T07:33:43;43.25;;;41.67;;
46282;SDS011;32017;43.700;11.820;2023-02-11T07:36:04;48.13;;;46.30;;
46282;SDS011;32017;43.700;11.820;2023-02-11T07:38:25;50.38;;;48.33;;
46282;SDS011;32017;43.700;11.820;2023-02-11T07:40:45;48.00;;;45.60;;
46282;SDS011;32017;43.700;11.820;2023-02-11T07:43:05;44.90;;;43.33;;
46282;SDS011;32017;43.700;11.820;2023-02-11T07:45:25;46.72;;;44.83;;
46282;SDS011;32017;43.700;11.820;2023-02-11T07:47:45;44.10;;;42.60;;
46282;SDS011;32017;43.700;11.820;2023-02-11T07:50:05;46.15;;;44.45;;
46282;SDS011;32017;43.700;11.820;2023-02-11T07:52:28;45.80;;;44.10;;
46282;SDS011;32017;43.700;11.820;2023-02-11T07:54:48;46.25;;;44.55;;
46282;SDS011;32017;43.700;11.820;2023-02-11T07:57:08;47.22;;;44.88;;
46282;SDS011;32017;43.700;11.820;2023-02-11T07:59:28;45.70;;;43.78;;
46282;SDS011;32017;43.700;11.820;2023-02-11T08:01:48;38.38;;;36.97;;
46282;SDS011;32017;43.700;11.820;2023-02-11T08:04:09;40.35;;;38.88;;
46282;SDS011;32017;43.700;11.820;2023-02-11T08:06:30;45.20;;;42.90;;
46282;SDS011;32017;43.700;11.820;2023-02-11T08:08:53;40.90;;;39.00;;
46282;SDS011;32017;43.700;11.820;2023-02-11T08:11:23;50.88;;;46.13;;
46282;SDS011;32017;43.700;11.820;2023-02-11T08:13:44;72.03;;;51.72;;
46282;SDS011;32017;43.700;11.820;2023-02-11T08:16:05;22.98;;;21.15;;
46282;SDS011;32017;43.700;11.820;2023-02-11T08:18:26;39.17;;;34.30;;
46282;SDS011;32017;43.700;11.820;2023-02-11T08:20:46;73.05;;;50.72;;
46282;SDS011;32017;43.700;11.820;2023-02-11T08:23:06;76.78;;;56.17;;
46282;SDS011;32017;43.700;11.820;2023-02-11T08:25:26;73.00;;;65.00;;
46282;SDS011;32017;43.700;11.820;2023-02-11T08:27:46;70.03;;;62.92;;
46282;SDS011;32017;43.700;11.820;2023-02-11T08:30:06;64.13;;;57.85;;
46282;SDS011;32017;43.700;11.820;2023-02-11T08:32:26;59.83;;;44.50;;
46282;SDS011;32017;43.700;11.820;2023-02-11T08:34:50;49.35;;;42.35;;
46282;SDS011;32017;43.700;11.820;2023-02-11T08:37:11;42.15;;;36.10;;
46282;SDS011;32017;43.700;11.820;2023-02-11T08:39:30;30.00;;;27.05;;
46282;SDS011;32017;43.700;11.820;2023-02-11T08:41:51;26.45;;;24.23;;
46282;SDS011;32017;43.700;11.820;2023-02-11T08:44:15;25.10;;;23.98;;
46282;SDS011;32017;43.700;11.820;2023-02-11T08:46:35;14.30;;;13.88;;
46282;SDS011;32017;43.700;11.820;2023-02-11T08:48:56;14.02;;;13.57;;
46282;SDS011;32017;43.700;11.820;2023-02-11T08:51:21;11.75;;;11.43;;
46282;SDS011;32017;43.700;11.820;2023-02-11T08:53:43;12.65;;;12.35;;
46282;SDS011;32017;43.700;11.820;2023-02-11T08:56:04;11.20;;;11.00;;
46282;SDS011;32017;43.700;11.820;2023-02-11T08:58:24;11.00;;;10.60;;
46282;SDS011;32017;43.700;11.820;2023-02-11T09:00:44;18.63;;;17.52;;
46282;SDS011;32017;43.700;11.820;2023-02-11T09:03:04;28.05;;;25.35;;
46282;SDS011;32017;43.700;11.820;2023-02-11T09:05:24;24.92;;;23.10;;
46282;SDS011;32017;43.700;11.820;2023-02-11T09:07:45;21.15;;;19.70;;
46282;SDS011;32017;43.700;11.820;2023-02-11T09:10:04;18.15;;;16.83;;
46282;SDS011;32017;43.700;11.820;2023-02-11T09:12:25;23.25;;;21.35;;
46282;SDS011;32017;43.700;11.820;2023-02-11T09:14:45;29.05;;;21.95;;
46282;SDS011;32017;43.700;11.820;2023-02-11T09:17:05;23.63;;;21.42;;
46282;SDS011;32017;43.700;11.820;2023-02-11T09:19:25;23.90;;;21.48;;
46282;SDS011;32017;43.700;11.820;2023-02-11T09:21:45;24.42;;;22.02;;
46282;SDS011;32017;43.700;11.820;2023-02-11T09:24:05;26.33;;;23.45;;
46282;SDS011;32017;43.700;11.820;2023-02-11T09:26:26;31.52;;;28.13;;
46282;SDS011;32017;43.700;11.820;2023-02-11T09:28:48;55.90;;;38.60;;
46282;SDS011;32017;43.700;11.820;2023-02-11T09:31:11;26.35;;;23.63;;
46282;SDS011;32017;43.700;11.820;2023-02-11T09:33:32;29.13;;;25.23;;
46282;SDS011;32017;43.700;11.820;2023-02-11T09:35:52;36.50;;;29.45;;
46282;SDS011;32017;43.700;11.820;2023-02-11T09:38:12;24.92;;;22.40;;
46282;SDS011;32017;43.700;11.820;2023-02-11T09:40:32;19.02;;;17.63;;
46282;SDS011;32017;43.700;11.820;2023-02-11T09:42:56;18.80;;;17.23;;
46282;SDS011;32017;43.700;11.820;2023-02-11T09:45:30;34.60;;;26.02;;
46282;SDS011;32017;43.700;11.820;2023-02-11T09:47:58;32.55;;;27.38;;
46282;SDS011;32017;43.700;11.820;2023-02-11T09:50:21;21.10;;;19.27;;
46282;SDS011;32017;43.700;11.820;2023-02-11T09:52:50;19.70;;;17.73;;
46282;SDS011;32017;43.700;11.820;2023-02-11T09:55:58;22.42;;;20.02;;
46282;SDS011;32017;43.700;11.820;2023-02-11T09:58:01;27.75;;;21.70;;
46282;SDS011;32017;43.700;11.820;2023-02-11T10:10:49;19.58;;;17.88;;
46282;SDS011;32017;43.700;11.820;2023-02-11T10:21:46;11.85;;;11.05;;
46282;SDS011;32017;43.700;11.820;2023-02-11T10:24:24;6.50;;;6.25;;
46282;SDS011;32017;43.700;11.820;2023-02-11T10:26:47;9.55;;;9.07;;
46282;SDS011;32017;43.700;11.820;2023-02-11T10:31:49;34.78;;;25.52;;
46282;SDS011;32017;43.700;11.820;2023-02-11T10:34:11;15.80;;;14.40;;
46282;SDS011;32017;43.700;11.820;2023-02-11T10:36:33;11.23;;;10.40;;
46282;SDS011;32017;43.700;11.820;2023-02-11T10:38:57;16.17;;;9.73;;
46282;SDS011;32017;43.700;11.820;2023-02-11T10:41:23;9.52;;;8.55;;
46282;SDS011;32017;43.700;11.820;2023-02-11T10:43:49;24.10;;;18.00;;
46282;SDS011;32017;43.700;11.820;2023-02-11T10:46:15;18.88;;;16.83;;
46282;SDS011;32017;43.700;11.820;2023-02-11T10:48:39;4.97;;;4.88;;
46282;SDS011;32017;43.700;11.820;2023-02-11T10:53:38;4.72;;;4.40;;
46282;SDS011;32017;43.700;11.820;2023-02-11T10:55:58;4.55;;;4.35;;
46282;SDS011;32017;43.700;11.820;2023-02-11T10:58:22;5.07;;;4.65;;
46282;SDS011;32017;43.700;11.820;2023-02-11T11:00:55;4.95;;;4.85;;
46282;SDS011;32017;43.700;11.820;2023-02-11T11:03:20;8.20;;;6.30;;
46282;SDS011;32017;43.700;11.820;2023-02-11T11:05:50;4.55;;;4.20;;
46282;SDS011;32017;43.700;11.820;2023-02-11T11:08:18;4.43;;;4.07;;
46282;SDS011;32017;43.700;11.820;2023-02-11T11:10:42;8.60;;;7.97;;
46282;SDS011;32017;43.700;11.820;2023-02-11T11:13:02;5.40;;;5.15;;
46282;SDS011;32017;43.700;11.820;2023-02-11T11:15:23;4.20;;;4.00;;
46282;SDS011;32017;43.700;11.820;2023-02-11T11:22:34;3.45;;;3.35;;
46282;SDS011;32017;43.700;11.820;2023-02-11T11:24:55;4.15;;;3.10;;
46282;SDS011;32017;43.700;11.820;2023-02-11T11:27:16;2.90;;;2.90;;
46282;SDS011;32017;43.700;11.820;2023-02-11T11:29:44;3.30;;;3.20;;
46282;SDS011;32017;43.700;11.820;2023-02-11T11:34:40;4.00;;;3.90;;
46282;SDS011;32017;43.700;11.820;2023-02-11T11:37:10;3.85;;;3.72;;
46282;SDS011;32017;43.700;11.820;2023-02-11T11:42:23;3.78;;;3.65;;
46282;SDS011;32017;43.700;11.820;2023-02-11T11:45:01;4.22;;;4.13;;
46282;SDS011;32017;43.700;11.820;2023-02-11T11:47:38;3.05;;;2.95;;
46282;SDS011;32017;43.700;11.820;2023-02-11T11:53:06;3.65;;;3.50;;
46282;SDS011;32017;43.700;11.820;2023-02-11T11:55:47;4.40;;;4.15;;
46282;SDS011;32017;43.700;11.820;2023-02-11T11:58:19;4.60;;;4.50;;
46282;SDS011;32017;43.700;11.820;2023-02-11T12:14:07;4.15;;;4.05;;
46282;SDS011;32017;43.700;11.820;2023-02-11T12:16:45;3.85;;;3.75;;
46282;SDS011;32017;43.700;11.820;2023-02-11T12:19:23;4.65;;;4.25;;
46282;SDS011;32017;43.700;11.820;2023-02-11T12:45:45;3.92;;;3.72;;
46282;SDS011;32017;43.700;11.820;2023-02-11T13:02:41;4.38;;;4.28;;
46282;SDS011;32017;43.700;11.820;2023-02-11T13:05:07;5.00;;;4.75;;
46282;SDS011;32017;43.700;11.820;2023-02-11T13:07:50;5.18;;;5.07;;
46282;SDS011;32017;43.700;11.820;2023-02-11T13:12:45;3.67;;;3.58;;
46282;SDS011;32017;43.700;11.820;2023-02-11T13:15:26;4.78;;;4.57;;
46282;SDS011;32017;43.700;11.820;2023-02-11T13:17:51;5.45;;;5.13;;
46282;SDS011;32017;43.700;11.820;2023-02-11T13:22:58;3.30;;;3.10;;
46282;SDS011;32017;43.700;11.820;2023-02-11T13:25:45;3.67;;;3.50;;
46282;SDS011;32017;43.700;11.820;2023-02-11T13:30:50;3.75;;;3.65;;
46282;SDS011;32017;43.700;11.820;2023-02-11T13:33:29;5.13;;;4.93;;
46282;SDS011;32017;43.700;11.820;2023-02-11T13:38:23;4.82;;;4.55;;
46282;SDS011;32017;43.700;11.820;2023-02-11T13:40:57;3.88;;;3.78;;
46282;SDS011;32017;43.700;11.820;2023-02-11T13:43:23;4.30;;;4.20;;
46282;SDS011;32017;43.700;11.820;2023-02-11T13:45:47;4.43;;;4.32;;
46282;SDS011;32017;43.700;11.820;2023-02-11T13:50:38;4.90;;;4.80;;
46282;SDS011;32017;43.700;11.820;2023-02-11T13:53:09;5.75;;;5.35;;
46282;SDS011;32017;43.700;11.820;2023-02-11T13:55:29;4.68;;;4.53;;
46282;SDS011;32017;43.700;11.820;2023-02-11T14:04:04;4.57;;;4.47;;
46282;SDS011;32017;43.700;11.820;2023-02-11T14:14:00;4.85;;;4.75;;
46282;SDS011;32017;43.700;11.820;2023-02-11T14:16:21;4.78;;;4.68;;
46282;SDS011;32017;43.700;11.820;2023-02-11T14:18:57;6.07;;;5.88;;
46282;SDS011;32017;43.700;11.820;2023-02-11T14:21:28;4.70;;;4.40;;
46282;SDS011;32017;43.700;11.820;2023-02-11T14:23:51;4.70;;;4.60;;
46282;SDS011;32017;43.700;11.820;2023-02-11T14:28:40;5.40;;;5.20;;
46282;SDS011;32017;43.700;11.820;2023-02-11T14:31:06;5.20;;;4.85;;
46282;SDS011;32017;43.700;11.820;2023-02-11T14:33:38;4.68;;;4.57;;
46282;SDS011;32017;43.700;11.820;2023-02-11T14:41:26;5.30;;;5.10;;
46282;SDS011;32017;43.700;11.820;2023-02-11T14:43:56;5.07;;;4.97;;
46282;SDS011;32017;43.700;11.820;2023-02-11T14:46:19;5.30;;;5.13;;
46282;SDS011;32017;43.700;11.820;2023-02-11T14:48:42;4.25;;;4.15;;
46282;SDS011;32017;43.700;11.820;2023-02-11T14:53:31;4.43;;;4.32;;
46282;SDS011;32017;43.700;11.820;2023-02-11T14:55:53;5.25;;;5.15;;
46282;SDS011;32017;43.700;11.820;2023-02-11T15:05:47;6.13;;;5.93;;
46282;SDS011;32017;43.700;11.820;2023-02-11T15:08:21;5.60;;;5.28;;
46282;SDS011;32017;43.700;11.820;2023-02-11T15:10:42;5.20;;;5.03;;
46282;SDS011;32017;43.700;11.820;2023-02-11T15:13:03;5.47;;;5.38;;
46282;SDS011;32017;43.700;11.820;2023-02-11T15:15:24;4.28;;;4.18;;
46282;SDS011;32017;43.700;11.820;2023-02-11T15:17:45;5.68;;;5.57;;
46282;SDS011;32017;43.700;11.820;2023-02-11T15:20:06;5.43;;;5.20;;
46282;SDS011;32017;43.700;11.820;2023-02-11T15:22:34;5.43;;;5.10;;
46282;SDS011;32017;43.700;11.820;2023-02-11T15:24:59;4.55;;;4.45;;
46282;SDS011;32017;43.700;11.820;2023-02-11T15:27:20;4.70;;;4.43;;
46282;SDS011;32017;43.700;11.820;2023-02-11T15:29:47;5.43;;;5.27;;
46282;SDS011;32017;43.700;11.820;2023-02-11T15:34:28;6.93;;;6.53;;
46282;SDS011;32017;43.700;11.820;2023-02-11T15:36:48;5.88;;;5.78;;
46282;SDS011;32017;43.700;11.820;2023-02-11T15:39:15;7.68;;;7.35;;
46282;SDS011;32017;43.700;11.820;2023-02-11T15:41:36;6.38;;;6.18;;
46282;SDS011;32017;43.700;11.820;2023-02-11T15:43:57;6.03;;;5.80;;
46282;SDS011;32017;43.700;11.820;2023-02-11T15:46:17;5.05;;;4.65;;
46282;SDS011;32017;43.700;11.820;2023-02-11T15:48:44;6.32;;;6.20;;
46282;SDS011;32017;43.700;11.820;2023-02-11T15:51:10;7.80;;;7.40;;
46282;SDS011;32017;43.700;11.820;2023-02-11T15:54:02;7.68;;;7.28;;
46282;SDS011;32017;43.700;11.820;2023-02-11T15:56:39;5.85;;;5.68;;
46282;SDS011;32017;43.700;11.820;2023-02-11T15:59:08;7.13;;;6.72;;
46282;SDS011;32017;43.700;11.820;2023-02-11T16:01:35;6.97;;;6.80;;
46282;SDS011;32017;43.700;11.820;2023-02-11T16:03:56;6.40;;;6.20;;
46282;SDS011;32017;43.700;11.820;2023-02-11T16:06:17;7.20;;;6.80;;
46282;SDS011;32017;43.700;11.820;2023-02-11T16:08:54;6.57;;;6.38;;
46282;SDS011;32017;43.700;11.820;2023-02-11T16:11:25;6.18;;;6.00;;
46282;SDS011;32017;43.700;11.820;2023-02-11T16:13:49;8.77;;;8.27;;
46282;SDS011;32017;43.700;11.820;2023-02-11T16:16:18;7.25;;;6.90;;
46282;SDS011;32017;43.700;11.820;2023-02-11T16:18:47;6.83;;;6.63;;
46282;SDS011;32017;43.700;11.820;2023-02-11T16:21:28;7.88;;;7.38;;
46282;SDS011;32017;43.700;11.820;2023-02-11T16:23:52;12.82;;;11.57;;
46282;SDS011;32017;43.700;11.820;2023-02-11T16:29:14;10.63;;;9.73;;
46282;SDS011;32017;43.700;11.820;2023-02-11T16:31:37;17.30;;;13.60;;
46282;SDS011;32017;43.700;11.820;2023-02-11T16:34:00;12.07;;;10.88;;
46282;SDS011;32017;43.700;11.820;2023-02-11T16:36:19;7.10;;;6.80;;
46282;SDS011;32017;43.700;11.820;2023-02-11T16:38:39;10.00;;;9.15;;